sensor_id;sensor_type;location;lat;lon;timestamp;pressure;altitude;pressure_sealevel;temperature;humidity
64298;BME280;50639;53.270;7.956;2023-10-13T00:02:03;100998.22;;;14.10;90.47
64298;BME280;50639;53.270;7.956;2023-10-13T00:04:33;100994.59;;;14.13;90.37
64298;BME280;50639;53.270;7.956;2023-10-13T00:07:01;100997.66;;;14.18;90.62
64298;BME280;50639;53.270;7.956;2023-10-13T00:09:28;100992.03;;;14.24;90.50
64298;BME280;50639;53.270;7.956;2023-10-13T00:12:04;100993.34;;;14.29;90.35
64298;BME280;50639;53.270;7.956;2023-10-13T00:14:34;100977.16;;;14.37;90.16
64298;BME280;50639;53.270;7.956;2023-10-13T00:17:03;100984.91;;;14.26;90.99
64298;BME280;50639;53.270;7.956;2023-10-13T00:22:10;100977.63;;;14.31;91.06
64298;BME280;50639;53.270;7.956;2023-10-13T00:24:38;100968.41;;;14.38;90.92
64298;BME280;50639;53.270;7.956;2023-10-13T00:27:18;100967.09;;;14.32;91.05
64298;BME280;50639;53.270;7.956;2023-10-13T00:29:59;100958.53;;;14.30;91.37
64298;BME280;50639;53.270;7.956;2023-10-13T00:33:00;100958.84;;;14.39;91.27
64298;BME280;50639;53.270;7.956;2023-10-13T00:35:29;100958.63;;;14.42;91.38
64298;BME280;50639;53.270;7.956;2023-10-13T00:37:58;100949.72;;;14.44;91.54
64298;BME280;50639;53.270;7.956;2023-10-13T00:40:32;100961.34;;;14.51;91.39
64298;BME280;50639;53.270;7.956;2023-10-13T00:42:58;100958.53;;;14.54;91.35
64298;BME280;50639;53.270;7.956;2023-10-13T00:45:44;100952.38;;;14.55;91.50
64298;BME280;50639;53.270;7.956;2023-10-13T00:48:14;100944.47;;;14.68;91.17
64298;BME280;50639;53.270;7.956;2023-10-13T00:50:41;100940.53;;;14.62;91.24
64298;BME280;50639;53.270;7.956;2023-10-13T00:53:08;100935.69;;;14.69;91.31
64298;BME280;50639;53.270;7.956;2023-10-13T00:55:34;100928.47;;;14.73;91.30
64298;BME280;50639;53.270;7.956;2023-10-13T00:58:01;100928.47;;;14.73;91.28
64298;BME280;50639;53.270;7.956;2023-10-13T01:00:32;100917.56;;;14.79;91.45
64298;BME280;50639;53.270;7.956;2023-10-13T01:02:58;100921.09;;;14.78;91.28
64298;BME280;50639;53.270;7.956;2023-10-13T01:05:31;100912.34;;;14.79;91.62
64298;BME280;50639;53.270;7.956;2023-10-13T01:08:01;100913.91;;;14.81;91.53
64298;BME280;50639;53.270;7.956;2023-10-13T01:10:27;100914.63;;;14.94;91.22
64298;BME280;50639;53.270;7.956;2023-10-13T01:12:54;100909.75;;;15.01;91.29
64298;BME280;50639;53.270;7.956;2023-10-13T01:15:19;100908.31;;;14.97;91.38
64298;BME280;50639;53.270;7.956;2023-10-13T01:17:48;100915.22;;;15.09;91.07
64298;BME280;50639;53.270;7.956;2023-10-13T01:20:14;100904.56;;;15.12;90.85
64298;BME280;50639;53.270;7.956;2023-10-13T01:22:53;100900.16;;;15.13;91.08
64298;BME280;50639;53.270;7.956;2023-10-13T01:25:25;100902.41;;;15.17;90.90
64298;BME280;50639;53.270;7.956;2023-10-13T01:27:52;100899.56;;;15.20;90.80
64298;BME280;50639;53.270;7.956;2023-10-13T01:30:18;100896.69;;;15.23;90.89
64298;BME280;50639;53.270;7.956;2023-10-13T01:32:51;100898.25;;;15.26;91.04
64298;BME280;50639;53.270;7.956;2023-10-13T01:35:19;100894.44;;;15.30;91.13
64298;BME280;50639;53.270;7.956;2023-10-13T01:37:45;100883.63;;;15.34;90.99
64298;BME280;50639;53.270;7.956;2023-10-13T01:40:11;100883.13;;;15.40;91.17
64298;BME280;50639;53.270;7.956;2023-10-13T01:42:39;100887.28;;;15.43;91.23
64298;BME280;50639;53.270;7.956;2023-10-13T01:45:05;100882.66;;;15.47;91.09
64298;BME280;50639;53.270;7.956;2023-10-13T01:47:31;100879.56;;;15.53;91.42
64298;BME280;50639;53.270;7.956;2023-10-13T01:49:58;100872.78;;;15.50;91.43
64298;BME280;50639;53.270;7.956;2023-10-13T01:52:32;100871.25;;;15.59;91.33
64298;BME280;50639;53.270;7.956;2023-10-13T01:54:58;100867.47;;;15.63;91.46
64298;BME280;50639;53.270;7.956;2023-10-13T01:57:26;100861.53;;;15.61;91.55
64298;BME280;50639;53.270;7.956;2023-10-13T01:59:53;100859.88;;;15.60;91.81
64298;BME280;50639;53.270;7.956;2023-10-13T02:02:20;100857.47;;;15.68;91.74
64298;BME280;50639;53.270;7.956;2023-10-13T02:04:54;100855.69;;;15.68;91.79
64298;BME280;50639;53.270;7.956;2023-10-13T02:07:26;100853.16;;;15.78;91.51
64298;BME280;50639;53.270;7.956;2023-10-13T02:10:00;100846.16;;;15.78;91.53
64298;BME280;50639;53.270;7.956;2023-10-13T02:12:29;100851.50;;;15.77;91.69
64298;BME280;50639;53.270;7.956;2023-10-13T02:15:03;100835.47;;;15.82;92.01
64298;BME280;50639;53.270;7.956;2023-10-13T02:17:30;100843.97;;;15.84;91.56
64298;BME280;50639;53.270;7.956;2023-10-13T02:20:06;100838.97;;;15.92;91.28
64298;BME280;50639;53.270;7.956;2023-10-13T02:22:33;100836.50;;;15.90;91.30
64298;BME280;50639;53.270;7.956;2023-10-13T02:24:59;100828.66;;;15.90;91.41
64298;BME280;50639;53.270;7.956;2023-10-13T02:27:34;100829.22;;;15.94;91.27
64298;BME280;50639;53.270;7.956;2023-10-13T02:30:07;100830.03;;;15.94;91.62
64298;BME280;50639;53.270;7.956;2023-10-13T02:32:40;100817.94;;;15.93;91.52
64298;BME280;50639;53.270;7.956;2023-10-13T02:35:09;100808.19;;;15.95;91.39
64298;BME280;50639;53.270;7.956;2023-10-13T02:37:41;100807.81;;;16.00;91.42
64298;BME280;50639;53.270;7.956;2023-10-13T02:40:11;100809.84;;;15.96;91.55
64298;BME280;50639;53.270;7.956;2023-10-13T02:42:36;100794.19;;;15.96;91.48
64298;BME280;50639;53.270;7.956;2023-10-13T02:45:02;100797.22;;;16.01;91.60
64298;BME280;50639;53.270;7.956;2023-10-13T02:47:30;100793.41;;;16.05;91.49
64298;BME280;50639;53.270;7.956;2023-10-13T02:49:57;100789.72;;;16.08;91.39
64298;BME280;50639;53.270;7.956;2023-10-13T02:52:26;100787.66;;;16.11;91.13
64298;BME280;50639;53.270;7.956;2023-10-13T02:54:52;100783.97;;;16.14;91.17
64298;BME280;50639;53.270;7.956;2023-10-13T02:57:18;100784.81;;;16.14;91.10
64298;BME280;50639;53.270;7.956;2023-10-13T02:59:44;100781.34;;;16.14;91.24
64298;BME280;50639;53.270;7.956;2023-10-13T03:02:14;100779.56;;;16.14;91.30
64298;BME280;50639;53.270;7.956;2023-10-13T03:04:57;100783.25;;;16.12;91.36
64298;BME280;50639;53.270;7.956;2023-10-13T03:07:35;100779.81;;;16.11;91.53
64298;BME280;50639;53.270;7.956;2023-10-13T03:10:02;100776.25;;;16.12;91.40
64298;BME280;50639;53.270;7.956;2023-10-13T03:12:38;100765.69;;;16.14;91.33
64298;BME280;50639;53.270;7.956;2023-10-13T03:15:04;100765.09;;;16.10;91.69
64298;BME280;50639;53.270;7.956;2023-10-13T03:17:43;100761.28;;;16.14;91.47
64298;BME280;50639;53.270;7.956;2023-10-13T03:20:13;100763.50;;;16.19;91.49
64298;BME280;50639;53.270;7.956;2023-10-13T03:22:40;100766.69;;;16.23;91.29
64298;BME280;50639;53.270;7.956;2023-10-13T03:25:07;100762.88;;;16.27;91.18
64298;BME280;50639;53.270;7.956;2023-10-13T03:27:34;100761.88;;;16.28;91.34
64298;BME280;50639;53.270;7.956;2023-10-13T03:30:21;100768.28;;;16.35;91.21
64298;BME280;50639;53.270;7.956;2023-10-13T03:32:47;100759.59;;;16.34;91.18
64298;BME280;50639;53.270;7.956;2023-10-13T03:35:20;100759.59;;;16.34;90.97
64298;BME280;50639;53.270;7.956;2023-10-13T03:37:56;100748.44;;;16.32;91.18
64298;BME280;50639;53.270;7.956;2023-10-13T03:40:23;100753.09;;;16.29;91.33
64298;BME280;50639;53.270;7.956;2023-10-13T03:42:49;100754.75;;;16.30;91.29
64298;BME280;50639;53.270;7.956;2023-10-13T03:45:30;100738.81;;;16.33;91.41
64298;BME280;50639;53.270;7.956;2023-10-13T03:48:03;100741.00;;;16.37;91.33
64298;BME280;50639;53.270;7.956;2023-10-13T03:50:35;100741.31;;;16.34;91.30
64298;BME280;50639;53.270;7.956;2023-10-13T03:53:01;100726.81;;;16.30;91.22
64298;BME280;50639;53.270;7.956;2023-10-13T03:55:27;100722.56;;;16.29;91.56
64298;BME280;50639;53.270;7.956;2023-10-13T03:57:54;100719.56;;;16.34;91.37
64298;BME280;50639;53.270;7.956;2023-10-13T04:00:22;100719.81;;;16.31;91.45
64298;BME280;50639;53.270;7.956;2023-10-13T04:02:53;100716.41;;;16.40;91.49
64298;BME280;50639;53.270;7.956;2023-10-13T04:05:34;100707.47;;;16.42;91.42
64298;BME280;50639;53.270;7.956;2023-10-13T04:08:03;100701.41;;;16.42;91.25
64298;BME280;50639;53.270;7.956;2023-10-13T04:10:48;100697.03;;;16.42;91.47
64298;BME280;50639;53.270;7.956;2023-10-13T04:13:19;100696.75;;;16.45;91.27
64298;BME280;50639;53.270;7.956;2023-10-13T04:16:23;100694.78;;;16.38;91.22
64298;BME280;50639;53.270;7.956;2023-10-13T04:18:49;100685.75;;;16.42;91.24
64298;BME280;50639;53.270;7.956;2023-10-13T04:21:23;100672.78;;;16.40;91.41
64298;BME280;50639;53.270;7.956;2023-10-13T04:26:47;100662.31;;;16.31;92.06
64298;BME280;50639;53.270;7.956;2023-10-13T04:29:31;100657.78;;;16.33;91.84
64298;BME280;50639;53.270;7.956;2023-10-13T04:32:15;100646.63;;;16.31;92.03
64298;BME280;50639;53.270;7.956;2023-10-13T04:35:00;100642.66;;;16.27;92.30
64298;BME280;50639;53.270;7.956;2023-10-13T04:37:37;100640.31;;;16.33;91.78
64298;BME280;50639;53.270;7.956;2023-10-13T04:40:20;100637.13;;;16.30;91.76
64298;BME280;50639;53.270;7.956;2023-10-13T04:42:54;100632.03;;;16.28;92.07
64298;BME280;50639;53.270;7.956;2023-10-13T04:45:22;100619.41;;;16.33;91.94
64298;BME280;50639;53.270;7.956;2023-10-13T04:47:58;100611.44;;;16.35;91.75
64298;BME280;50639;53.270;7.956;2023-10-13T04:50:47;100601.22;;;16.32;91.72
64298;BME280;50639;53.270;7.956;2023-10-13T04:53:16;100603.56;;;16.25;91.90
64298;BME280;50639;53.270;7.956;2023-10-13T04:56:20;100595.06;;;16.33;92.20
64298;BME280;50639;53.270;7.956;2023-10-13T04:59:04;100591.34;;;16.35;91.73
64298;BME280;50639;53.270;7.956;2023-10-13T05:01:48;100586.66;;;16.39;91.53
64298;BME280;50639;53.270;7.956;2023-10-13T05:04:23;100593.66;;;16.38;91.57
64298;BME280;50639;53.270;7.956;2023-10-13T05:07:08;100580.59;;;16.29;91.75
64298;BME280;50639;53.270;7.956;2023-10-13T05:09:52;100569.47;;;16.27;92.08
64298;BME280;50639;53.270;7.956;2023-10-13T05:12:36;100568.22;;;16.31;92.00
64298;BME280;50639;53.270;7.956;2023-10-13T05:15:20;100555.13;;;16.21;92.29
64298;BME280;50639;53.270;7.956;2023-10-13T05:18:04;100550.88;;;16.30;92.29
64298;BME280;50639;53.270;7.956;2023-10-13T05:20:48;100558.56;;;16.22;92.51
64298;BME280;50639;53.270;7.956;2023-10-13T05:23:32;100545.94;;;16.27;92.41
64298;BME280;50639;53.270;7.956;2023-10-13T05:26:16;100537.66;;;16.22;92.48
64298;BME280;50639;53.270;7.956;2023-10-13T05:29:01;100533.53;;;16.19;92.54
64298;BME280;50639;53.270;7.956;2023-10-13T05:31:45;100528.44;;;16.27;92.25
64298;BME280;50639;53.270;7.956;2023-10-13T05:34:29;100527.75;;;16.15;92.41
64298;BME280;50639;53.270;7.956;2023-10-13T05:37:13;100525.41;;;16.12;92.70
64298;BME280;50639;53.270;7.956;2023-10-13T05:39:57;100522.25;;;16.18;92.77
64298;BME280;50639;53.270;7.956;2023-10-13T05:42:41;100519.09;;;16.15;92.91
64298;BME280;50639;53.270;7.956;2023-10-13T05:45:25;100513.59;;;16.18;92.88
64298;BME280;50639;53.270;7.956;2023-10-13T05:48:05;100508.66;;;16.15;92.87
64298;BME280;50639;53.270;7.956;2023-10-13T05:50:39;100512.78;;;16.17;93.02
64298;BME280;50639;53.270;7.956;2023-10-13T05:53:28;100501.34;;;16.18;92.88
64298;BME280;50639;53.270;7.956;2023-10-13T05:56:11;100491.88;;;16.17;93.11
64298;BME280;50639;53.270;7.956;2023-10-13T05:58:55;100491.72;;;16.19;92.90
64298;BME280;50639;53.270;7.956;2023-10-13T06:01:57;100480.31;;;16.20;92.95
64298;BME280;50639;53.270;7.956;2023-10-13T06:04:41;100486.91;;;16.14;92.96
64298;BME280;50639;53.270;7.956;2023-10-13T06:07:25;100476.03;;;16.19;93.07
64298;BME280;50639;53.270;7.956;2023-10-13T06:10:09;100473.84;;;16.24;92.67
64298;BME280;50639;53.270;7.956;2023-10-13T06:12:53;100457.63;;;16.21;92.92
64298;BME280;50639;53.270;7.956;2023-10-13T06:15:38;100460.34;;;16.19;92.97
64298;BME280;50639;53.270;7.956;2023-10-13T06:18:22;100446.63;;;16.17;92.89
64298;BME280;50639;53.270;7.956;2023-10-13T06:21:08;100438.63;;;16.18;92.97
64298;BME280;50639;53.270;7.956;2023-10-13T06:23:52;100440.56;;;16.16;93.38
64298;BME280;50639;53.270;7.956;2023-10-13T06:26:36;100420.63;;;16.15;93.33
64298;BME280;50639;53.270;7.956;2023-10-13T06:29:20;100418.00;;;16.15;93.26
64298;BME280;50639;53.270;7.956;2023-10-13T06:31:46;100413.31;;;16.19;93.22
64298;BME280;50639;53.270;7.956;2023-10-13T06:34:13;100421.03;;;16.11;93.36
64298;BME280;50639;53.270;7.956;2023-10-13T06:36:41;100412.53;;;16.09;93.50
64298;BME280;50639;53.270;7.956;2023-10-13T06:39:06;100405.47;;;16.19;93.05
64298;BME280;50639;53.270;7.956;2023-10-13T06:41:51;100400.13;;;16.21;92.99
64298;BME280;50639;53.270;7.956;2023-10-13T06:44:16;100392.72;;;16.16;93.14
64298;BME280;50639;53.270;7.956;2023-10-13T06:46:42;100396.16;;;16.16;92.90
64298;BME280;50639;53.270;7.956;2023-10-13T06:49:08;100397.50;;;16.11;92.98
64298;BME280;50639;53.270;7.956;2023-10-13T06:51:36;100392.41;;;16.19;93.03
64298;BME280;50639;53.270;7.956;2023-10-13T06:54:03;100378.97;;;16.04;93.03
64298;BME280;50639;53.270;7.956;2023-10-13T06:56:28;100384.31;;;16.12;92.73
64298;BME280;50639;53.270;7.956;2023-10-13T06:58:55;100380.88;;;16.22;92.59
64298;BME280;50639;53.270;7.956;2023-10-13T07:01:30;100385.69;;;16.26;92.04
64298;BME280;50639;53.270;7.956;2023-10-13T07:04:06;100383.75;;;16.18;92.13
64298;BME280;50639;53.270;7.956;2023-10-13T07:06:39;100388.72;;;16.22;91.86
64298;BME280;50639;53.270;7.956;2023-10-13T07:09:08;100389.81;;;16.19;92.21
64298;BME280;50639;53.270;7.956;2023-10-13T07:11:40;100392.72;;;16.26;91.81
64298;BME280;50639;53.270;7.956;2023-10-13T07:14:08;100387.34;;;16.17;91.99
64298;BME280;50639;53.270;7.956;2023-10-13T07:16:56;100383.91;;;16.17;91.96
64298;BME280;50639;53.270;7.956;2023-10-13T07:19:28;100393.66;;;16.25;91.89
64298;BME280;50639;53.270;7.956;2023-10-13T07:21:55;100387.47;;;16.26;91.77
64298;BME280;50639;53.270;7.956;2023-10-13T07:24:27;100376.59;;;16.11;92.15
64298;BME280;50639;53.270;7.956;2023-10-13T07:26:58;100378.25;;;16.22;91.98
64298;BME280;50639;53.270;7.956;2023-10-13T07:29:29;100383.22;;;16.25;91.70
64298;BME280;50639;53.270;7.956;2023-10-13T07:31:54;100386.78;;;16.24;92.04
64298;BME280;50639;53.270;7.956;2023-10-13T07:34:20;100388.84;;;16.30;91.77
64298;BME280;50639;53.270;7.956;2023-10-13T07:36:58;100381.44;;;16.25;92.24
64298;BME280;50639;53.270;7.956;2023-10-13T07:39:29;100380.31;;;16.28;92.09
64298;BME280;50639;53.270;7.956;2023-10-13T07:42:04;100370.00;;;16.26;92.08
64298;BME280;50639;53.270;7.956;2023-10-13T07:44:48;100384.56;;;16.29;91.98
64298;BME280;50639;53.270;7.956;2023-10-13T07:47:13;100378.13;;;16.23;92.22
64298;BME280;50639;53.270;7.956;2023-10-13T07:49:43;100383.47;;;16.31;91.92
64298;BME280;50639;53.270;7.956;2023-10-13T07:52:10;100389.09;;;16.36;91.77
64298;BME280;50639;53.270;7.956;2023-10-13T07:54:45;100395.25;;;16.45;91.81
64298;BME280;50639;53.270;7.956;2023-10-13T07:57:29;100377.53;;;16.39;91.67
64298;BME280;50639;53.270;7.956;2023-10-13T07:59:55;100372.03;;;16.42;91.82
64298;BME280;50639;53.270;7.956;2023-10-13T08:02:37;100374.22;;;16.46;91.54
64298;BME280;50639;53.270;7.956;2023-10-13T08:05:15;100371.59;;;16.56;91.46
64298;BME280;50639;53.270;7.956;2023-10-13T08:08:05;100363.75;;;16.56;91.36
64298;BME280;50639;53.270;7.956;2023-10-13T08:10:39;100364.28;;;16.60;91.35
64298;BME280;50639;53.270;7.956;2023-10-13T08:13:07;100352.47;;;16.65;91.20
64298;BME280;50639;53.270;7.956;2023-10-13T08:15:40;100354.56;;;16.62;91.40
64298;BME280;50639;53.270;7.956;2023-10-13T08:18:13;100350.91;;;16.72;91.02
64298;BME280;50639;53.270;7.956;2023-10-13T08:20:57;100342.50;;;16.78;90.94
64298;BME280;50639;53.270;7.956;2023-10-13T08:23:31;100335.88;;;16.84;90.59
64298;BME280;50639;53.270;7.956;2023-10-13T08:26:26;100342.72;;;16.95;90.32
64298;BME280;50639;53.270;7.956;2023-10-13T08:29:03;100332.53;;;16.91;90.07
64298;BME280;50639;53.270;7.956;2023-10-13T08:31:51;100334.47;;;16.89;90.01
64298;BME280;50639;53.270;7.956;2023-10-13T08:34:36;100342.03;;;16.92;89.90
64298;BME280;50639;53.270;7.956;2023-10-13T08:37:11;100340.22;;;16.93;89.27
64298;BME280;50639;53.270;7.956;2023-10-13T08:39:50;100328.94;;;16.92;89.55
64298;BME280;50639;53.270;7.956;2023-10-13T08:42:29;100321.78;;;16.95;89.24
64298;BME280;50639;53.270;7.956;2023-10-13T08:45:09;100318.75;;;16.89;89.35
64298;BME280;50639;53.270;7.956;2023-10-13T08:48:01;100310.22;;;16.97;89.18
64298;BME280;50639;53.270;7.956;2023-10-13T08:50:34;100294.88;;;17.02;89.37
64298;BME280;50639;53.270;7.956;2023-10-13T08:56:11;100281.81;;;17.02;89.28
64298;BME280;50639;53.270;7.956;2023-10-13T08:58:47;100276.44;;;17.04;89.16
64298;BME280;50639;53.270;7.956;2023-10-13T09:01:19;100277.69;;;17.00;89.38
64298;BME280;50639;53.270;7.956;2023-10-13T09:04:10;100268.56;;;17.04;89.24
64298;BME280;50639;53.270;7.956;2023-10-13T09:09:44;100265.28;;;17.02;89.10
64298;BME280;50639;53.270;7.956;2023-10-13T09:12:22;100270.50;;;17.02;89.41
64298;BME280;50639;53.270;7.956;2023-10-13T09:15:10;100263.19;;;17.05;89.57
64298;BME280;50639;53.270;7.956;2023-10-13T09:17:49;100248.97;;;17.08;89.26
64298;BME280;50639;53.270;7.956;2023-10-13T09:20:30;100248.97;;;17.08;89.62
64298;BME280;50639;53.270;7.956;2023-10-13T09:23:18;100242.19;;;17.15;89.51
64298;BME280;50639;53.270;7.956;2023-10-13T09:25:50;100241.81;;;17.27;89.17
64298;BME280;50639;53.270;7.956;2023-10-13T09:28:34;100235.00;;;17.17;89.62
64298;BME280;50639;53.270;7.956;2023-10-13T09:31:02;100223.41;;;17.37;88.98
64298;BME280;50639;53.270;7.956;2023-10-13T09:33:29;100231.63;;;17.42;89.49
64298;BME280;50639;53.270;7.956;2023-10-13T09:35:59;100220.72;;;17.47;89.47
64298;BME280;50639;53.270;7.956;2023-10-13T09:38:28;100204.88;;;17.48;89.49
64298;BME280;50639;53.270;7.956;2023-10-13T09:40:54;100189.66;;;17.70;89.24
64298;BME280;50639;53.270;7.956;2023-10-13T09:43:26;100196.19;;;17.65;89.07
64298;BME280;50639;53.270;7.956;2023-10-13T09:45:59;100191.66;;;17.76;88.71
64298;BME280;50639;53.270;7.956;2023-10-13T09:48:38;100175.63;;;17.79;88.65
64298;BME280;50639;53.270;7.956;2023-10-13T09:51:16;100173.34;;;17.76;88.74
64298;BME280;50639;53.270;7.956;2023-10-13T09:57:15;100161.63;;;17.96;88.27
64298;BME280;50639;53.270;7.956;2023-10-13T10:00:00;100150.66;;;17.92;88.46
64298;BME280;50639;53.270;7.956;2023-10-13T10:02:36;100156.41;;;17.96;88.55
64298;BME280;50639;53.270;7.956;2023-10-13T10:05:08;100161.19;;;18.00;88.16
64298;BME280;50639;53.270;7.956;2023-10-13T10:07:39;100145.31;;;18.02;87.92
64298;BME280;50639;53.270;7.956;2023-10-13T10:10:09;100132.47;;;17.91;88.88
64298;BME280;50639;53.270;7.956;2023-10-13T10:13:15;100146.44;;;17.99;88.33
64298;BME280;50639;53.270;7.956;2023-10-13T10:15:46;100139.03;;;17.95;88.53
64298;BME280;50639;53.270;7.956;2023-10-13T10:18:23;100109.22;;;17.96;88.59
64298;BME280;50639;53.270;7.956;2023-10-13T10:20:51;100103.84;;;17.97;88.87
64298;BME280;50639;53.270;7.956;2023-10-13T10:23:27;100121.53;;;18.03;88.85
64298;BME280;50639;53.270;7.956;2023-10-13T10:25:55;100127.31;;;18.07;88.12
64298;BME280;50639;53.270;7.956;2023-10-13T10:28:42;100118.50;;;18.24;87.86
64298;BME280;50639;53.270;7.956;2023-10-13T10:31:08;100104.28;;;18.27;88.04
64298;BME280;50639;53.270;7.956;2023-10-13T10:33:42;100102.13;;;18.22;88.03
64298;BME280;50639;53.270;7.956;2023-10-13T10:36:08;100107.22;;;18.32;87.98
64298;BME280;50639;53.270;7.956;2023-10-13T10:38:55;100092.34;;;18.49;86.96
64298;BME280;50639;53.270;7.956;2023-10-13T10:41:29;100100.41;;;18.55;86.69
64298;BME280;50639;53.270;7.956;2023-10-13T10:44:09;100101.59;;;18.69;86.36
64298;BME280;50639;53.270;7.956;2023-10-13T10:46:35;100093.91;;;18.84;85.60
64298;BME280;50639;53.270;7.956;2023-10-13T10:49:07;100105.22;;;18.92;84.96
64298;BME280;50639;53.270;7.956;2023-10-13T10:51:36;100098.50;;;18.98;84.96
64298;BME280;50639;53.270;7.956;2023-10-13T10:54:18;100078.16;;;19.00;85.46
64298;BME280;50639;53.270;7.956;2023-10-13T10:56:46;100094.56;;;18.94;84.84
64298;BME280;50639;53.270;7.956;2023-10-13T10:59:18;100052.72;;;19.00;84.56
64298;BME280;50639;53.270;7.956;2023-10-13T11:01:45;100051.41;;;19.12;83.78
64298;BME280;50639;53.270;7.956;2023-10-13T11:04:17;100055.69;;;19.13;83.54
64298;BME280;50639;53.270;7.956;2023-10-13T11:06:55;100053.22;;;19.12;84.75
64298;BME280;50639;53.270;7.956;2023-10-13T11:09:25;100043.19;;;19.24;83.17
64298;BME280;50639;53.270;7.956;2023-10-13T11:12:13;100037.75;;;19.41;82.64
64298;BME280;50639;53.270;7.956;2023-10-13T11:14:48;100034.75;;;19.44;83.09
64298;BME280;50639;53.270;7.956;2023-10-13T11:17:22;100027.41;;;19.48;82.21
64298;BME280;50639;53.270;7.956;2023-10-13T11:20:12;100026.09;;;19.52;81.61
64298;BME280;50639;53.270;7.956;2023-10-13T11:22:45;100021.13;;;19.57;82.05
64298;BME280;50639;53.270;7.956;2023-10-13T11:25:20;100023.09;;;19.47;81.72
64298;BME280;50639;53.270;7.956;2023-10-13T11:27:48;100014.56;;;19.61;81.41
64298;BME280;50639;53.270;7.956;2023-10-13T11:30:17;100002.41;;;19.60;80.83
64298;BME280;50639;53.270;7.956;2023-10-13T11:32:57;100001.69;;;19.74;80.03
64298;BME280;50639;53.270;7.956;2023-10-13T11:35:23;99992.06;;;19.89;79.11
64298;BME280;50639;53.270;7.956;2023-10-13T11:37:49;99990.75;;;19.94;78.18
64298;BME280;50639;53.270;7.956;2023-10-13T11:40:23;99997.94;;;20.00;77.37
64298;BME280;50639;53.270;7.956;2023-10-13T11:43:07;99996.38;;;20.13;76.93
64298;BME280;50639;53.270;7.956;2023-10-13T11:45:42;100002.16;;;20.09;76.60
64298;BME280;50639;53.270;7.956;2023-10-13T11:48:42;99991.13;;;20.13;76.24
64298;BME280;50639;53.270;7.956;2023-10-13T11:51:10;100003.34;;;20.29;76.35
64298;BME280;50639;53.270;7.956;2023-10-13T11:53:43;100002.50;;;20.37;75.20
64298;BME280;50639;53.270;7.956;2023-10-13T11:56:10;100005.44;;;20.34;75.22
64298;BME280;50639;53.270;7.956;2023-10-13T11:58:37;100008.59;;;20.29;75.86
64298;BME280;50639;53.270;7.956;2023-10-13T12:01:02;100005.59;;;20.32;75.61
64298;BME280;50639;53.270;7.956;2023-10-13T12:03:47;100002.84;;;20.25;76.05
64298;BME280;50639;53.270;7.956;2023-10-13T12:06:33;100009.28;;;20.23;75.89
64298;BME280;50639;53.270;7.956;2023-10-13T12:09:06;99997.47;;;20.19;76.89
64298;BME280;50639;53.270;7.956;2023-10-13T12:12:04;100009.00;;;20.18;76.35
64298;BME280;50639;53.270;7.956;2023-10-13T12:14:30;100010.97;;;20.16;76.74
64298;BME280;50639;53.270;7.956;2023-10-13T12:17:05;100013.75;;;20.14;76.61
64298;BME280;50639;53.270;7.956;2023-10-13T12:19:36;99993.09;;;20.11;77.18
64298;BME280;50639;53.270;7.956;2023-10-13T12:22:01;99971.53;;;20.16;76.93
64298;BME280;50639;53.270;7.956;2023-10-13T12:24:32;99937.81;;;20.19;76.24
64298;BME280;50639;53.270;7.956;2023-10-13T12:27:04;99935.19;;;20.19;77.34
64298;BME280;50639;53.270;7.956;2023-10-13T12:29:46;99936.47;;;20.23;75.95
64298;BME280;50639;53.270;7.956;2023-10-13T12:32:12;99948.78;;;20.23;75.92
64298;BME280;50639;53.270;7.956;2023-10-13T12:34:39;99951.41;;;20.23;75.63
64298;BME280;50639;53.270;7.956;2023-10-13T12:37:24;99936.84;;;20.20;75.08
64298;BME280;50639;53.270;7.956;2023-10-13T12:40:05;99945.78;;;20.11;75.85
64298;BME280;50639;53.270;7.956;2023-10-13T12:42:50;99930.59;;;20.21;75.14
64298;BME280;50639;53.270;7.956;2023-10-13T12:45:41;99944.66;;;20.28;75.13
64298;BME280;50639;53.270;7.956;2023-10-13T12:48:25;99927.06;;;20.29;74.60
64298;BME280;50639;53.270;7.956;2023-10-13T12:51:09;99941.91;;;20.22;74.89
64298;BME280;50639;53.270;7.956;2023-10-13T12:53:54;99949.59;;;20.23;74.89
64298;BME280;50639;53.270;7.956;2023-10-13T12:56:20;99932.84;;;20.24;74.50
64298;BME280;50639;53.270;7.956;2023-10-13T12:58:54;99933.78;;;20.32;74.99
64298;BME280;50639;53.270;7.956;2023-10-13T13:01:20;99935.28;;;20.26;74.97
64298;BME280;50639;53.270;7.956;2023-10-13T13:03:47;99934.66;;;20.01;75.80
64298;BME280;50639;53.270;7.956;2023-10-13T13:06:24;99931.00;;;20.10;76.01
64298;BME280;50639;53.270;7.956;2023-10-13T13:08:59;99925.38;;;20.13;75.10
64298;BME280;50639;53.270;7.956;2023-10-13T13:11:25;99927.47;;;20.18;75.20
64298;BME280;50639;53.270;7.956;2023-10-13T13:13:51;99908.06;;;20.19;74.73
64298;BME280;50639;53.270;7.956;2023-10-13T13:16:17;99913.41;;;20.11;75.00
64298;BME280;50639;53.270;7.956;2023-10-13T13:18:50;99930.94;;;19.96;75.98
64298;BME280;50639;53.270;7.956;2023-10-13T13:21:15;99924.03;;;19.95;75.19
64298;BME280;50639;53.270;7.956;2023-10-13T13:23:53;99927.19;;;19.90;75.25
64298;BME280;50639;53.270;7.956;2023-10-13T13:26:22;99929.97;;;19.88;75.09
64298;BME280;50639;53.270;7.956;2023-10-13T13:28:48;99933.31;;;19.82;75.51
64298;BME280;50639;53.270;7.956;2023-10-13T13:31:17;99914.75;;;19.84;75.43
64298;BME280;50639;53.270;7.956;2023-10-13T13:33:43;99912.63;;;19.79;76.21
64298;BME280;50639;53.270;7.956;2023-10-13T13:36:09;99914.91;;;19.82;75.95
64298;BME280;50639;53.270;7.956;2023-10-13T13:38:41;99899.31;;;19.81;75.82
64298;BME280;50639;53.270;7.956;2023-10-13T13:41:14;99895.34;;;19.85;75.21
64298;BME280;50639;53.270;7.956;2023-10-13T13:43:46;99882.81;;;19.95;75.45